Time;durP1;ratioP1;P1;durP2;ratioP2;P2;SDS_P1;SDS_P2;PMS_P1;PMS_P2;Temp;Humidity;BMP_temperature;BMP_pressure;BME280_temperature;BME280_humidity;BME280_pressure;Samples;Min_cycle;Max_cycle;Signal;HPM_P1;HPM_P2
2022/02/16 00:04:31;;;;;;;55.40;50.33;;;;;;;9.96;100.00;99989.41;1961912;71;33155;-75
2022/02/16 00:10:16;;;;;;;55.30;49.87;;;;;;;9.98;100.00;99980.20;2003861;71;32865;-74
2022/02/16 00:16:00;;;;;;;56.37;51.37;;;;;;;9.95;100.00;99969.16;2011262;71;32826;-74
2022/02/16 00:21:44;;;;;;;58.00;52.50;;;;;;;10.00;100.00;99949.66;2009507;71;32965;-72
2022/02/16 00:27:28;;;;;;;58.27;52.40;;;;;;;9.95;100.00;99919.23;1994750;71;33295;-72
2022/02/16 00:33:13;;;;;;;56.80;50.80;;;;;;;9.92;100.00;99897.66;2014522;71;33363;-72
2022/02/16 00:38:57;;;;;;;54.13;48.60;;;;;;;9.97;100.00;99880.08;1994809;71;32796;-72
2022/02/16 00:44:41;;;;;;;55.33;49.93;;;;;;;10.01;100.00;99859.73;1996586;71;32867;-74
2022/02/16 00:50:25;;;;;;;55.17;50.50;;;;;;;10.02;100.00;99840.59;2005943;71;33235;-72
2022/02/16 00:56:10;;;;;;;53.67;48.93;;;;;;;10.03;100.00;99813.11;2014519;71;33435;-73
2022/02/16 01:01:54;;;;;;;52.10;47.43;;;;;;;10.12;100.00;99797.13;2001840;71;33353;-73
2022/02/16 01:07:38;;;;;;;49.77;45.07;;;;;;;10.09;100.00;99777.77;1998082;71;33449;-72
2022/02/16 01:13:25;;;;;;;52.23;47.57;;;;;;;10.13;100.00;99764.92;1994842;71;33298;-74
2022/02/16 01:19:09;;;;;;;49.27;45.13;;;;;;;10.22;100.00;99740.09;1991186;71;32857;-74
2022/02/16 01:24:54;;;;;;;49.60;44.67;;;;;;;10.25;100.00;99742.23;2012604;71;32982;-74
2022/02/16 01:30:38;;;;;;;47.50;43.47;;;;;;;10.36;100.00;99726.98;1991255;71;33334;-73
2022/02/16 01:36:23;;;;;;;46.77;42.80;;;;;;;10.41;100.00;99708.28;2002099;71;30893;-74
2022/02/16 01:42:08;;;;;;;44.50;40.97;;;;;;;10.58;100.00;99687.35;2001589;71;33389;-74
2022/02/16 01:47:52;;;;;;;44.17;40.67;;;;;;;10.87;100.00;99689.14;1996548;71;32941;-74
2022/02/16 01:53:36;;;;;;;49.37;45.80;;;;;;;11.07;100.00;99687.26;2011181;71;32826;-74
2022/02/16 01:59:24;;;;;;;46.83;43.53;;;;;;;11.18;100.00;99694.75;2007268;71;32935;-73
2022/02/16 02:05:11;;;;;;;47.77;44.47;;;;;;;11.27;100.00;99685.90;2005331;71;33033;-73
2022/02/16 02:10:57;;;;;;;48.43;45.00;;;;;;;11.32;100.00;99677.44;1991076;71;33403;-74
2022/02/16 02:16:43;;;;;;;44.87;41.57;;;;;;;11.32;100.00;99678.25;2011318;71;32779;-73
2022/02/16 02:22:27;;;;;;;49.60;46.10;;;;;;;11.45;100.00;99675.13;2000366;71;34112;-74
2022/02/16 02:28:12;;;;;;;49.03;45.63;;;;;;;11.51;100.00;99658.54;2005954;71;33249;-73
2022/02/16 02:33:56;;;;;;;49.13;45.50;;;;;;;11.59;100.00;99656.39;2016063;71;33346;-74
2022/02/16 02:39:40;;;;;;;49.80;46.27;;;;;;;11.58;100.00;99665.87;1994663;71;32782;-74
2022/02/16 02:45:26;;;;;;;52.27;48.57;;;;;;;11.67;100.00;99643.09;2009074;71;32835;-73
2022/02/16 02:51:10;;;;;;;52.03;48.47;;;;;;;11.76;100.00;99655.09;1996597;71;33387;-73
2022/02/16 02:56:55;;;;;;;50.43;46.90;;;;;;;11.84;100.00;99653.48;2012557;71;33337;-74
2022/02/16 03:02:39;;;;;;;49.33;45.63;;;;;;;11.89;100.00;99655.30;2012573;71;32921;-74
2022/02/16 03:08:25;;;;;;;51.13;47.43;;;;;;;11.95;100.00;99651.20;2017821;71;32833;-74
2022/02/16 03:14:09;;;;;;;52.13;48.63;;;;;;;11.95;100.00;99636.72;1994590;71;32800;-75
2022/02/16 03:19:53;;;;;;;53.50;49.90;;;;;;;12.12;100.00;99620.05;2003673;71;33310;-73
2022/02/16 03:25:37;;;;;;;54.90;51.03;;;;;;;12.14;100.00;99612.78;1994279;71;33284;-74
2022/02/16 03:31:22;;;;;;;57.40;53.60;;;;;;;12.15;100.00;99614.43;2008754;71;32955;-74
2022/02/16 03:37:06;;;;;;;55.00;51.30;;;;;;;12.20;100.00;99610.07;1990987;71;32839;-75
2022/02/16 03:42:51;;;;;;;58.27;54.40;;;;;;;12.27;100.00;99599.28;1994591;71;32744;-74
2022/02/16 03:48:35;;;;;;;53.23;49.63;;;;;;;12.30;100.00;99605.58;2011406;71;32830;-74
2022/02/16 03:54:19;;;;;;;56.67;52.77;;;;;;;12.37;100.00;99587.80;2016009;71;32893;-74
2022/02/16 04:00:08;;;;;;;55.70;52.00;;;;;;;12.30;100.00;99600.02;2006959;71;32891;-73
2022/02/16 04:05:51;;;;;;;50.87;47.13;;;;;;;12.38;100.00;99610.33;2005602;71;32867;-72
2022/02/16 04:11:35;;;;;;;51.67;47.87;;;;;;;12.33;100.00;99607.70;1994753;71;32775;-73
2022/02/16 04:17:19;;;;;;;54.90;51.20;;;;;;;12.40;100.00;99615.02;2000150;71;33289;-73
2022/02/16 04:23:04;;;;;;;55.00;51.20;;;;;;;12.40;100.00;99608.05;1996575;71;33307;-74
2022/02/16 04:28:49;;;;;;;53.10;49.40;;;;;;;12.38;100.00;99611.72;2001623;71;32886;-73
2022/02/16 04:34:35;;;;;;;50.80;47.10;;;;;;;12.41;100.00;99611.66;2003940;71;33227;-75
2022/02/16 04:40:19;;;;;;;49.67;46.20;;;;;;;12.48;100.00;99614.77;2011111;71;33219;-73
2022/02/16 04:46:04;;;;;;;51.90;48.20;;;;;;;12.52;100.00;99614.35;2008907;71;32837;-75
2022/02/16 04:51:48;;;;;;;50.97;47.37;;;;;;;12.52;100.00;99626.89;2014309;71;32820;-74
2022/02/16 04:57:32;;;;;;;51.37;47.67;;;;;;;12.54;100.00;99637.11;1996504;71;32818;-75
2022/02/16 05:03:16;;;;;;;50.83;47.23;;;;;;;12.50;100.00;99641.13;1979229;72;33502;-74
2022/02/16 05:09:01;;;;;;;48.57;44.80;;;;;;;12.51;100.00;99656.70;2016181;71;33393;-74
2022/02/16 05:14:45;;;;;;;50.47;46.77;;;;;;;12.44;100.00;99659.73;2005707;71;32854;-74
2022/02/16 05:20:29;;;;;;;49.70;46.30;;;;;;;12.50;100.00;99658.41;2017934;71;33002;-74
2022/02/16 05:26:13;;;;;;;47.40;43.90;;;;;;;12.52;100.00;99650.56;2016071;71;32889;-74
2022/02/16 05:31:57;;;;;;;50.13;46.53;;;;;;;12.47;100.00;99634.83;2010852;71;33431;-74
2022/02/16 05:37:42;;;;;;;51.57;47.87;;;;;;;12.47;100.00;99629.83;2010911;71;33259;-76
2022/02/16 05:43:28;;;;;;;48.23;44.83;;;;;;;12.54;100.00;99617.61;2005706;71;32869;-73
2022/02/16 05:49:13;;;;;;;43.33;40.00;;;;;;;12.52;100.00;99616.56;2002058;71;32794;-74
2022/02/16 05:54:58;;;;;;;44.70;41.40;;;;;;;12.43;100.00;99613.53;1994301;71;32952;-75
2022/02/16 06:00:42;;;;;;;45.43;41.83;;;;;;;12.57;100.00;99642.87;2005704;71;33257;-75
2022/02/16 06:06:26;;;;;;;45.63;42.13;;;;;;;12.60;100.00;99651.95;2003597;71;33287;-73
2022/02/16 06:12:11;;;;;;;47.03;43.33;;;;;;;12.68;100.00;99636.38;2007461;71;32785;-75
2022/02/16 06:17:55;;;;;;;45.87;42.07;;;;;;;12.73;100.00;99641.22;2012739;71;33350;-75
2022/02/16 06:23:39;;;;;;;51.63;47.57;;;;;;;12.74;100.00;99649.00;2010731;71;33527;-74
2022/02/16 06:29:23;;;;;;;46.30;42.50;;;;;;;12.70;100.00;99643.28;2014357;71;32825;-74
2022/02/16 06:35:09;;;;;;;49.07;44.90;;;;;;;12.67;100.00;99624.98;1994396;71;32838;-73
2022/02/16 06:40:53;;;;;;;45.00;41.23;;;;;;;12.69;100.00;99614.34;2018020;71;32898;-75
2022/02/16 06:46:38;;;;;;;50.73;46.43;;;;;;;12.66;100.00;99626.16;2016154;71;32845;-74
2022/02/16 06:52:23;;;;;;;51.87;47.37;;;;;;;12.66;100.00;99636.70;2005891;71;33273;-74
2022/02/16 06:58:07;;;;;;;52.00;47.57;;;;;;;12.62;100.00;99661.39;2008921;71;33431;-73
2022/02/16 07:03:51;;;;;;;54.27;49.27;;;;;;;12.65;100.00;99682.44;2000246;71;33236;-73
2022/02/16 07:09:35;;;;;;;62.00;56.73;;;;;;;12.64;100.00;99682.19;2003896;71;33330;-72
2022/02/16 07:15:20;;;;;;;66.00;59.90;;;;;;;12.66;100.00;99663.77;2016127;71;32848;-73
2022/02/16 07:21:04;;;;;;;64.87;58.30;;;;;;;12.69;100.00;99687.60;2000447;71;32733;-73
2022/02/16 07:26:49;;;;;;;67.63;61.23;;;;;;;12.72;100.00;99709.22;2016497;71;32816;-74
2022/02/16 07:32:33;;;;;;;67.03;60.17;;;;;;;12.70;100.00;99712.93;2005201;71;32960;-73
2022/02/16 07:38:17;;;;;;;68.57;61.27;;;;;;;12.78;100.00;99741.94;2007190;71;32833;-74
2022/02/16 07:44:01;;;;;;;74.63;66.80;;;;;;;12.77;100.00;99759.80;1997974;71;32843;-75
2022/02/16 07:49:46;;;;;;;72.87;65.10;;;;;;;12.83;100.00;99791.12;1998281;71;32755;-73
2022/02/16 07:55:30;;;;;;;72.07;64.83;;;;;;;12.87;100.00;99764.23;2000333;71;32858;-74
2022/02/16 08:01:15;;;;;;;66.50;59.67;;;;;;;12.86;100.00;99775.95;1996793;71;33408;-74
2022/02/16 08:07:00;;;;;;;69.73;62.80;;;;;;;12.83;100.00;99771.61;1994834;71;33313;-74
2022/02/16 08:12:48;;;;;;;67.87;61.33;;;;;;;12.78;100.00;99769.80;2016222;71;32812;-75
2022/02/16 08:18:33;;;;;;;66.03;59.73;;;;;;;12.85;100.00;99791.02;2011221;71;32834;-75
2022/02/16 08:24:17;;;;;;;71.43;64.33;;;;;;;12.83;100.00;99785.55;2003388;71;33361;-75
2022/02/16 08:30:06;;;;;;;68.87;61.70;;;;;;;12.85;100.00;99769.30;2016059;71;32946;-75
2022/02/16 08:35:50;;;;;;;73.90;66.47;;;;;;;12.88;100.00;99780.61;2003441;71;32859;-73
2022/02/16 08:41:34;;;;;;;72.77;65.80;;;;;;;12.92;100.00;99773.83;2003764;71;32771;-74
2022/02/16 08:47:19;;;;;;;72.07;65.10;;;;;;;12.89;100.00;99771.68;2018076;71;33405;-74
2022/02/16 08:53:03;;;;;;;65.63;59.27;;;;;;;13.03;100.00;99780.72;2003922;71;32918;-72
2022/02/16 08:58:48;;;;;;;70.67;63.70;;;;;;;13.01;100.00;99772.67;2001933;71;33405;-75
2022/02/16 09:04:33;;;;;;;65.40;58.67;;;;;;;13.03;100.00;99757.02;1957436;72;33411;-74
2022/02/16 09:10:17;;;;;;;71.37;64.60;;;;;;;13.05;100.00;99759.71;2003423;71;33368;-74
2022/02/16 09:16:01;;;;;;;71.40;64.07;;;;;;;13.09;100.00;99752.33;2011255;71;32839;-74
2022/02/16 09:21:46;;;;;;;74.70;67.77;;;;;;;13.01;100.00;99750.37;2000225;71;32936;-72
2022/02/16 09:27:31;;;;;;;72.13;65.43;;;;;;;13.16;100.00;99777.80;2014669;71;32965;-74
2022/02/16 09:33:15;;;;;;;71.83;64.30;;;;;;;13.21;100.00;99794.94;2012904;71;33365;-73
2022/02/16 09:39:00;;;;;;;70.73;64.00;;;;;;;13.24;100.00;99774.75;2017956;71;32953;-73
2022/02/16 09:44:48;;;;;;;67.47;60.67;;;;;;;13.34;100.00;99803.72;2013050;71;32883;-74
2022/02/16 09:50:34;;;;;;;70.67;63.03;;;;;;;13.42;100.00;99786.15;2000490;71;33275;-73
2022/02/16 09:56:19;;;;;;;69.30;62.57;;;;;;;13.40;100.00;99760.54;1997869;71;32949;-72
2022/02/16 10:02:07;;;;;;;71.47;64.10;;;;;;;13.38;100.00;99737.75;1996733;71;32814;-72
2022/02/16 10:07:52;;;;;;;66.63;59.80;;;;;;;13.58;100.00;99751.00;2012774;71;33315;-75
2022/02/16 10:13:38;;;;;;;67.27;60.30;;;;;;;13.61;100.00;99746.70;2010523;70;32875;-73
2022/02/16 10:19:23;;;;;;;67.83;60.83;;;;;;;13.75;100.00;99752.09;2000311;71;32770;-73
2022/02/16 10:25:22;;;;;;;66.50;59.50;;;;;;;13.81;100.00;99730.66;2003861;71;32792;-72
2022/02/16 10:31:24;;;;;;;69.87;62.97;;;;;;;13.90;100.00;99720.86;2007584;71;33299;-73
2022/02/16 10:37:13;;;;;;;71.03;63.87;;;;;;;13.98;100.00;99743.16;2005490;71;32829;-72
2022/02/16 10:43:00;;;;;;;67.10;60.53;;;;;;;14.04;100.00;99743.77;2016214;71;32828;-72
2022/02/16 10:48:45;;;;;;;64.80;58.50;;;;;;;14.15;100.00;99718.52;2005482;71;32894;-74
2022/02/16 10:54:34;;;;;;;61.77;55.40;;;;;;;14.16;100.00;99731.34;2003444;71;32823;-73
2022/02/16 11:00:20;;;;;;;64.23;58.20;;;;;;;14.35;100.00;99741.52;2016076;71;32807;-75
2022/02/16 11:06:07;;;;;;;63.10;57.23;;;;;;;14.55;100.00;99776.23;2000299;71;33294;-74
2022/02/16 11:11:53;;;;;;;60.10;54.87;;;;;;;14.68;100.00;99763.16;2010754;71;32809;-75
2022/02/16 11:17:41;;;;;;;64.97;59.43;;;;;;;14.67;100.00;99737.80;1997507;71;33356;-74
2022/02/16 11:23:44;;;;;;;60.73;55.33;;;;;;;14.83;100.00;99738.24;2003562;71;33021;-75
2022/02/16 11:29:49;;;;;;;63.90;58.53;;;;;;;14.92;100.00;99752.98;1998205;71;33322;-73
2022/02/16 11:35:45;;;;;;;65.87;60.47;;;;;;;15.03;100.00;99774.34;2013212;71;32852;-75
2022/02/16 11:41:31;;;;;;;62.43;57.47;;;;;;;15.09;100.00;99765.18;1994295;71;32898;-72
2022/02/16 11:47:45;;;;;;;62.13;57.20;;;;;;;15.09;100.00;99748.40;2016051;71;32830;-72
2022/02/16 11:53:50;;;;;;;61.60;56.73;;;;;;;15.22;100.00;99748.13;1996453;71;32751;-73
2022/02/16 11:59:53;;;;;;;62.67;57.30;;;;;;;15.05;100.00;99709.12;2018025;71;32995;-72
2022/02/16 12:05:51;;;;;;;60.30;55.30;;;;;;;15.21;100.00;99669.55;1994341;71;32857;-73
2022/02/16 12:11:38;;;;;;;58.93;53.80;;;;;;;15.24;100.00;99699.62;2005728;71;33274;-73
2022/02/16 12:17:27;;;;;;;61.17;55.73;;;;;;;15.24;100.00;99698.22;1997875;71;33062;-75
2022/02/16 12:23:13;;;;;;;61.37;56.27;;;;;;;15.14;100.00;99676.88;2013029;71;32875;-75
2022/02/16 12:29:00;;;;;;;64.23;59.23;;;;;;;15.13;100.00;99697.61;2011312;71;33331;-74
2022/02/16 12:34:47;;;;;;;62.03;57.10;;;;;;;15.12;100.00;99695.38;2000094;71;32742;-74
2022/02/16 12:40:32;;;;;;;60.37;55.67;;;;;;;15.15;100.00;99672.89;2011082;71;32743;-72
2022/02/16 12:46:17;;;;;;;60.53;55.63;;;;;;;15.19;100.00;99682.26;2004826;71;32988;-74
2022/02/16 12:52:05;;;;;;;63.00;58.10;;;;;;;15.22;100.00;99678.19;2010862;71;32835;-75
2022/02/16 12:57:53;;;;;;;69.27;64.37;;;;;;;15.13;100.00;99664.86;2003206;71;32823;-73
2022/02/16 13:03:37;;;;;;;64.10;59.00;;;;;;;15.01;100.00;99655.86;2014459;71;32885;-73
2022/02/16 13:09:24;;;;;;;67.80;62.40;;;;;;;14.99;100.00;99645.58;2004139;71;33268;-74
2022/02/16 13:15:11;;;;;;;68.87;63.10;;;;;;;14.92;100.00;99647.31;2012786;71;33550;-72
2022/02/16 13:21:10;;;;;;;66.53;60.70;;;;;;;14.62;100.00;99649.95;2003946;71;32913;-74
2022/02/16 13:26:56;;;;;;;66.67;61.17;;;;;;;14.51;100.00;99651.75;2005244;71;33290;-73
2022/02/16 13:32:40;;;;;;;70.87;65.13;;;;;;;14.49;100.00;99648.50;2008927;71;32944;-74
2022/02/16 13:38:35;;;;;;;68.07;62.63;;;;;;;14.38;100.00;99665.41;2008965;71;33402;-75
2022/02/16 13:44:27;;;;;;;65.27;59.97;;;;;;;14.40;100.00;99656.70;2014279;71;33130;-74
2022/02/16 13:50:14;;;;;;;63.70;58.80;;;;;;;14.36;100.00;99620.25;2005197;71;33345;-73
2022/02/16 13:56:00;;;;;;;61.93;56.83;;;;;;;14.41;100.00;99614.47;1996494;70;32825;-74
2022/02/16 14:02:11;;;;;;;62.30;57.50;;;;;;;14.36;100.00;99615.23;2011331;71;33230;-74
2022/02/16 14:08:05;;;;;;;62.37;57.57;;;;;;;14.42;100.00;99590.11;2002203;71;33200;-75
2022/02/16 14:13:50;;;;;;;63.77;59.00;;;;;;;14.50;100.00;99590.64;2014707;71;32910;-73
2022/02/16 14:19:35;;;;;;;59.00;54.43;;;;;;;14.54;100.00;99591.02;1996478;71;33304;-73
2022/02/16 14:25:20;;;;;;;63.03;58.23;;;;;;;14.58;100.00;99598.13;2005823;71;33183;-74
2022/02/16 14:31:04;;;;;;;59.03;54.33;;;;;;;14.58;100.00;99588.34;1906497;70;32886;-73
2022/02/16 14:36:49;;;;;;;60.77;56.17;;;;;;;14.59;100.00;99563.41;2010842;71;33385;-74
2022/02/16 14:42:34;;;;;;;63.73;59.13;;;;;;;14.65;100.00;99545.28;1991041;71;33193;-75
2022/02/16 14:48:20;;;;;;;60.13;55.73;;;;;;;14.64;100.00;99540.03;2007492;71;32806;-73
2022/02/16 14:54:06;;;;;;;61.83;57.43;;;;;;;14.71;100.00;99521.56;2003835;71;32862;-74
2022/02/16 14:59:50;;;;;;;61.37;56.87;;;;;;;14.72;100.00;99523.78;2016213;71;33324;-75
2022/02/16 15:05:35;;;;;;;67.63;62.87;;;;;;;14.76;100.00;99514.94;2000474;71;33333;-74
2022/02/16 15:11:20;;;;;;;61.67;57.10;;;;;;;14.82;100.00;99489.78;1996538;71;33245;-73
2022/02/16 15:17:06;;;;;;;60.70;56.20;;;;;;;14.86;100.00;99476.73;2000522;71;33341;-74
2022/02/16 15:22:50;;;;;;;61.77;57.07;;;;;;;14.95;100.00;99466.27;2008810;71;32950;-75
2022/02/16 15:28:35;;;;;;;62.80;58.30;;;;;;;15.00;100.00;99482.25;2018016;71;33474;-75
2022/02/16 15:34:19;;;;;;;64.77;60.07;;;;;;;15.10;100.00;99480.16;2005486;71;33330;-74
2022/02/16 15:40:05;;;;;;;66.33;61.50;;;;;;;15.07;100.00;99492.84;2005530;71;33375;-74
2022/02/16 15:45:50;;;;;;;65.43;60.53;;;;;;;14.94;100.00;99514.38;2012549;71;32858;-72
2022/02/16 15:51:34;;;;;;;63.27;58.57;;;;;;;14.89;100.00;99513.81;2014582;71;32855;-74
2022/02/16 15:57:18;;;;;;;61.20;56.80;;;;;;;14.90;100.00;99491.65;2000167;71;30956;-73
2022/02/16 16:03:05;;;;;;;61.20;56.70;;;;;;;14.88;100.00;99452.06;2003425;70;30870;-74
2022/02/16 16:08:49;;;;;;;61.57;57.17;;;;;;;14.88;100.00;99467.44;2003624;71;33376;-73
2022/02/16 16:14:33;;;;;;;55.57;51.17;;;;;;;14.87;100.00;99439.23;2012765;71;33367;-73
2022/02/16 16:20:19;;;;;;;59.33;54.93;;;;;;;14.84;100.00;99432.95;2016422;71;30935;-74
2022/02/16 16:26:07;;;;;;;61.13;56.53;;;;;;;14.81;100.00;99444.81;2010608;71;32828;-74
2022/02/16 16:31:50;;;;;;;62.67;58.07;;;;;;;14.76;100.00;99445.06;2014207;71;32954;-74
2022/02/16 16:37:34;;;;;;;60.67;56.17;;;;;;;14.69;100.00;99465.76;2012533;71;33263;-74
2022/02/16 16:43:20;;;;;;;59.30;54.53;;;;;;;14.71;100.00;99472.65;2005803;71;32868;-74
2022/02/16 16:49:05;;;;;;;58.90;54.07;;;;;;;14.67;100.00;99466.13;2009699;71;32781;-74
2022/02/16 16:54:49;;;;;;;62.83;57.83;;;;;;;14.70;100.00;99475.20;2007678;71;32871;-74
2022/02/16 17:00:34;;;;;;;63.17;58.30;;;;;;;14.61;100.00;99460.51;2014234;71;32898;-75
2022/02/16 17:06:19;;;;;;;63.23;58.33;;;;;;;14.55;100.00;99475.84;2000310;71;32745;-74
2022/02/16 17:12:04;;;;;;;60.80;56.10;;;;;;;14.54;100.00;99470.87;2007806;71;33280;-74
2022/02/16 17:17:49;;;;;;;59.10;54.57;;;;;;;14.51;100.00;99479.09;2016276;71;32859;-73
2022/02/16 17:23:33;;;;;;;60.97;56.20;;;;;;;14.50;100.00;99462.13;1998140;71;32868;-74
2022/02/16 17:29:17;;;;;;;60.53;56.00;;;;;;;14.48;100.00;99449.06;2005137;71;32950;-73
2022/02/16 17:35:01;;;;;;;56.40;52.03;;;;;;;14.47;100.00;99449.64;2016169;71;33286;-73
2022/02/16 17:40:46;;;;;;;58.87;54.37;;;;;;;14.47;100.00;99448.24;2012974;70;33386;-74
2022/02/16 17:46:30;;;;;;;55.60;51.07;;;;;;;14.50;100.00;99455.92;1997965;71;32974;-74
2022/02/16 17:52:17;;;;;;;59.97;55.47;;;;;;;14.54;100.00;99464.45;2016232;71;32990;-74
2022/02/16 17:58:02;;;;;;;55.27;50.87;;;;;;;14.56;100.00;99485.30;1991116;71;32813;-75
2022/02/16 18:03:47;;;;;;;55.97;51.60;;;;;;;14.62;100.00;99486.48;2011278;71;33239;-75
2022/02/16 18:09:30;;;;;;;57.50;53.20;;;;;;;14.61;100.00;99503.00;2014282;71;32888;-73
2022/02/16 18:15:14;;;;;;;57.40;53.00;;;;;;;14.61;100.00;99494.04;2007616;70;33279;-74
2022/02/16 18:20:57;;;;;;;56.60;52.10;;;;;;;14.62;100.00;99482.28;2009497;71;32830;-75
2022/02/16 18:26:42;;;;;;;58.57;54.10;;;;;;;14.68;100.00;99494.86;1999590;71;32849;-74
2022/02/16 18:32:26;;;;;;;59.07;54.73;;;;;;;14.68;100.00;99506.04;2010883;71;32879;-74
2022/02/16 18:38:10;;;;;;;60.63;56.17;;;;;;;14.69;100.00;99499.30;2003849;71;32748;-74
2022/02/16 18:43:58;;;;;;;59.80;55.40;;;;;;;14.72;100.00;99507.02;2001917;71;32745;-73
2022/02/16 18:49:42;;;;;;;59.57;55.17;;;;;;;14.75;100.00;99511.90;1996598;71;33160;-73
2022/02/16 18:55:26;;;;;;;58.40;54.00;;;;;;;14.75;100.00;99521.68;1999912;71;31389;-74
2022/02/16 19:01:11;;;;;;;59.20;54.73;;;;;;;14.71;100.00;99534.14;2009009;71;30873;-73
2022/02/16 19:06:55;;;;;;;59.87;55.57;;;;;;;14.65;100.00;99532.70;2000345;71;32806;-74
2022/02/16 19:12:41;;;;;;;57.53;53.33;;;;;;;14.62;100.00;99552.14;1994373;71;32868;-73
2022/02/16 19:18:26;;;;;;;60.47;55.97;;;;;;;14.57;100.00;99542.00;2009375;71;32815;-73
2022/02/16 19:24:10;;;;;;;62.03;57.77;;;;;;;14.58;100.00;99553.42;2002109;71;32773;-75
2022/02/16 19:29:55;;;;;;;60.90;56.70;;;;;;;14.51;100.00;99543.36;2018007;71;32917;-74
2022/02/16 19:35:39;;;;;;;62.17;57.93;;;;;;;14.36;100.00;99557.97;2003248;71;32802;-73
2022/02/16 19:41:23;;;;;;;57.10;52.80;;;;;;;14.35;100.00;99564.14;2001728;71;33288;-73
2022/02/16 19:47:08;;;;;;;58.33;54.00;;;;;;;14.28;100.00;99561.63;2008902;71;32802;-73
2022/02/16 19:52:53;;;;;;;59.83;55.53;;;;;;;14.24;100.00;99553.70;2002969;71;32817;-74
2022/02/16 19:58:39;;;;;;;66.57;62.17;;;;;;;14.29;100.00;99557.08;1999525;71;32809;-74
2022/02/16 20:04:24;;;;;;;67.50;62.80;;;;;;;14.22;100.00;99576.94;2007177;71;33304;-74
2022/02/16 20:10:08;;;;;;;67.73;63.13;;;;;;;14.25;100.00;99577.67;1994443;71;33294;-74
2022/02/16 20:15:52;;;;;;;72.40;67.13;;;;;;;14.15;100.00;99606.82;2008974;71;33280;-74
2022/02/16 20:21:37;;;;;;;68.70;63.60;;;;;;;13.91;100.00;99592.09;2001855;71;32897;-72
2022/02/16 20:27:23;;;;;;;67.60;62.70;;;;;;;13.86;100.00;99609.03;2010700;71;33014;-74
2022/02/16 20:33:08;;;;;;;66.57;61.47;;;;;;;13.76;100.00;99603.03;2005849;71;33274;-74
2022/02/16 20:38:52;;;;;;;61.03;56.37;;;;;;;13.67;100.00;99588.55;2002035;71;32743;-73
2022/02/16 20:44:37;;;;;;;60.17;55.20;;;;;;;13.68;100.00;99601.94;2000139;71;32746;-74
2022/02/16 20:50:23;;;;;;;65.23;60.53;;;;;;;13.74;100.00;99607.55;2009029;71;32814;-73
2022/02/16 20:56:07;;;;;;;64.73;60.03;;;;;;;13.74;100.00;99626.27;2011092;71;32783;-74
2022/02/16 21:01:53;;;;;;;67.20;62.20;;;;;;;13.62;100.00;99620.00;1994402;71;33282;-73
2022/02/16 21:07:38;;;;;;;68.23;63.30;;;;;;;13.47;100.00;99633.95;2008674;70;32939;-74
2022/02/16 21:13:23;;;;;;;65.40;60.50;;;;;;;13.42;100.00;99623.55;2000293;71;32837;-74
2022/02/16 21:19:08;;;;;;;62.60;58.03;;;;;;;13.34;100.00;99618.25;2015991;71;32950;-73
2022/02/16 21:24:52;;;;;;;67.83;62.73;;;;;;;13.35;100.00;99630.23;2000261;71;33234;-73
2022/02/16 21:30:37;;;;;;;66.40;61.40;;;;;;;13.36;100.00;99647.18;1994692;71;32837;-73
2022/02/16 21:36:22;;;;;;;63.13;58.13;;;;;;;13.29;100.00;99628.76;2009525;71;33213;-74
2022/02/16 21:42:07;;;;;;;60.10;55.37;;;;;;;13.26;100.00;99640.02;1991032;71;32742;-73
2022/02/16 21:47:52;;;;;;;64.50;59.70;;;;;;;13.30;100.00;99626.22;2016301;71;32807;-75
2022/02/16 21:53:37;;;;;;;60.97;56.30;;;;;;;13.20;100.00;99647.73;2005434;71;32835;-73
2022/02/16 21:59:22;;;;;;;63.27;58.67;;;;;;;13.09;100.00;99693.78;2013013;71;33409;-74
2022/02/16 22:05:08;;;;;;;63.50;58.70;;;;;;;13.02;100.00;99695.44;1991102;71;33241;-75
2022/02/16 22:10:54;;;;;;;65.93;60.93;;;;;;;12.94;100.00;99724.14;1994718;71;32806;-73
2022/02/16 22:16:40;;;;;;;64.37;59.77;;;;;;;12.92;100.00;99723.66;2007369;71;33413;-75
2022/02/16 22:22:24;;;;;;;60.77;55.90;;;;;;;12.92;100.00;99736.20;2005728;71;32947;-72
2022/02/16 22:28:08;;;;;;;58.03;53.07;;;;;;;12.76;100.00;99749.22;2003522;71;32871;-74
2022/02/16 22:33:56;;;;;;;62.10;56.90;;;;;;;12.62;100.00;99751.92;2013144;71;32735;-75
2022/02/16 22:39:39;;;;;;;57.17;52.43;;;;;;;12.58;100.00;99767.05;2007787;71;33221;-72
2022/02/16 22:45:24;;;;;;;61.87;56.53;;;;;;;12.42;100.00;99775.62;2005295;71;33245;-74
2022/02/16 22:51:08;;;;;;;62.90;57.80;;;;;;;12.28;100.00;99790.22;2002178;71;32806;-74
2022/02/16 22:56:52;;;;;;;61.20;56.03;;;;;;;12.22;100.00;99815.20;2014418;71;32925;-73
2022/02/16 23:14:44;;;;;;;63.23;57.90;;;;;;;12.04;100.00;99854.66;2001931;71;32801;-74
2022/02/16 23:20:29;;;;;;;62.53;57.10;;;;;;;12.03;100.00;99877.22;2001820;71;33290;-74
2022/02/16 23:26:15;;;;;;;67.80;61.87;;;;;;;12.02;100.00;99902.87;1998063;71;33437;-75
2022/02/16 23:31:59;;;;;;;66.17;59.67;;;;;;;11.88;100.00;99909.63;2005325;71;33228;-75
2022/02/16 23:37:43;;;;;;;63.33;57.57;;;;;;;11.80;100.00;99924.57;1996469;71;32865;-73
2022/02/16 23:43:28;;;;;;;65.87;59.63;;;;;;;11.73;100.00;99946.42;2007563;71;33445;-73
2022/02/16 23:49:26;;;;;;;64.07;58.00;;;;;;;11.69;100.00;99948.16;1998288;71;33275;-74
2022/02/16 23:55:02;;;;;;;65.00;58.80;;;;;;;11.56;100.00;99978.80;1968885;70;33394;-72
2022/02/16 23:57:33;;;;;;;64.07;58.33;;;;;;;11.51;100.00;99998.40;1952252;73;26168;-72
